sensor_id;sensor_type;location;lat;lon;timestamp;pressure;altitude;pressure_sealevel;temperature;humidity
80103;BME280;69865;47.648;19.030;2023-06-24T00:00:26;100533.97;;;18.33;88.31
80103;BME280;69865;47.648;19.030;2023-06-24T00:00:58;100525.16;;;18.33;88.20
80103;BME280;69865;47.648;19.030;2023-06-24T00:01:30;100527.66;;;18.34;88.20
80103;BME280;69865;47.648;19.030;2023-06-24T00:02:02;100535.19;;;18.30;88.58
80103;BME280;69865;47.648;19.030;2023-06-24T00:02:35;100528.53;;;18.26;87.85
80103;BME280;69865;47.648;19.030;2023-06-24T00:03:07;100521.47;;;18.34;85.41
80103;BME280;69865;47.648;19.030;2023-06-24T00:03:39;100520.94;;;18.38;85.18
80103;BME280;69865;47.648;19.030;2023-06-24T00:04:11;100526.44;;;18.37;86.40
80103;BME280;69865;47.648;19.030;2023-06-24T00:04:43;100514.78;;;18.38;85.92
80103;BME280;69865;47.648;19.030;2023-06-24T00:05:15;100525.75;;;18.43;84.78
80103;BME280;69865;47.648;19.030;2023-06-24T00:05:47;100521.78;;;18.39;85.51
80103;BME280;69865;47.648;19.030;2023-06-24T00:06:19;100531.25;;;18.41;84.44
80103;BME280;69865;47.648;19.030;2023-06-24T00:06:51;100527.75;;;18.41;85.29
80103;BME280;69865;47.648;19.030;2023-06-24T00:07:23;100533.91;;;18.41;85.71
80103;BME280;69865;47.648;19.030;2023-06-24T00:07:55;100534.09;;;18.40;84.84
80103;BME280;69865;47.648;19.030;2023-06-24T00:08:27;100534.66;;;18.35;84.59
80103;BME280;69865;47.648;19.030;2023-06-24T00:08:59;100544.59;;;18.41;83.23
80103;BME280;69865;47.648;19.030;2023-06-24T00:09:31;100547.56;;;18.46;82.25
80103;BME280;69865;47.648;19.030;2023-06-24T00:10:04;100546.88;;;18.44;83.62
80103;BME280;69865;47.648;19.030;2023-06-24T00:10:37;100553.25;;;18.43;84.20
80103;BME280;69865;47.648;19.030;2023-06-24T00:11:09;100555.09;;;18.43;83.31
80103;BME280;69865;47.648;19.030;2023-06-24T00:11:41;100558.38;;;18.45;81.52
80103;BME280;69865;47.648;19.030;2023-06-24T00:12:14;100566.88;;;18.48;81.34
80103;BME280;69865;47.648;19.030;2023-06-24T00:12:46;100570.72;;;18.46;82.98
80103;BME280;69865;47.648;19.030;2023-06-24T00:13:18;100568.38;;;18.51;82.50
80103;BME280;69865;47.648;19.030;2023-06-24T00:13:50;100569.16;;;18.51;81.51
80103;BME280;69865;47.648;19.030;2023-06-24T00:14:23;100562.69;;;18.54;81.03
80103;BME280;69865;47.648;19.030;2023-06-24T00:14:56;100564.88;;;18.50;81.11
80103;BME280;69865;47.648;19.030;2023-06-24T00:15:28;100567.69;;;18.49;81.63
80103;BME280;69865;47.648;19.030;2023-06-24T00:16:00;100583.22;;;18.53;80.56
80103;BME280;69865;47.648;19.030;2023-06-24T00:16:33;100577.16;;;18.51;81.12
80103;BME280;69865;47.648;19.030;2023-06-24T00:17:05;100579.19;;;18.49;81.10
80103;BME280;69865;47.648;19.030;2023-06-24T00:17:37;100579.03;;;18.51;81.58
80103;BME280;69865;47.648;19.030;2023-06-24T00:18:10;100571.38;;;18.48;80.89
80103;BME280;69865;47.648;19.030;2023-06-24T00:18:42;100576.88;;;18.54;80.85
80103;BME280;69865;47.648;19.030;2023-06-24T00:19:14;100584.50;;;18.57;80.15
80103;BME280;69865;47.648;19.030;2023-06-24T00:19:46;100587.81;;;18.59;79.74
80103;BME280;69865;47.648;19.030;2023-06-24T00:20:18;100571.28;;;18.64;79.21
80103;BME280;69865;47.648;19.030;2023-06-24T00:20:50;100575.16;;;18.61;79.53
80103;BME280;69865;47.648;19.030;2023-06-24T00:21:23;100573.94;;;18.64;79.31
80103;BME280;69865;47.648;19.030;2023-06-24T00:21:55;100567.97;;;18.62;80.39
80103;BME280;69865;47.648;19.030;2023-06-24T00:22:27;100585.97;;;18.60;80.12
80103;BME280;69865;47.648;19.030;2023-06-24T00:22:59;100578.81;;;18.60;79.48
80103;BME280;69865;47.648;19.030;2023-06-24T00:23:31;100574.66;;;18.58;80.34
80103;BME280;69865;47.648;19.030;2023-06-24T00:24:03;100582.69;;;18.58;80.25
80103;BME280;69865;47.648;19.030;2023-06-24T00:24:36;100581.84;;;18.57;80.37
80103;BME280;69865;47.648;19.030;2023-06-24T00:25:08;100580.53;;;18.53;81.18
80103;BME280;69865;47.648;19.030;2023-06-24T00:25:40;100582.22;;;18.54;80.09
80103;BME280;69865;47.648;19.030;2023-06-24T00:26:12;100585.88;;;18.53;80.08
80103;BME280;69865;47.648;19.030;2023-06-24T00:26:44;100595.53;;;18.54;79.64
80103;BME280;69865;47.648;19.030;2023-06-24T00:27:16;100596.38;;;18.55;80.13
80103;BME280;69865;47.648;19.030;2023-06-24T00:27:48;100593.97;;;18.60;79.63
80103;BME280;69865;47.648;19.030;2023-06-24T00:28:20;100581.84;;;18.57;79.56
80103;BME280;69865;47.648;19.030;2023-06-24T00:28:52;100586.34;;;18.57;79.51
80103;BME280;69865;47.648;19.030;2023-06-24T00:29:24;100595.34;;;18.56;80.47
80103;BME280;69865;47.648;19.030;2023-06-24T00:29:58;100595.34;;;18.56;79.40
80103;BME280;69865;47.648;19.030;2023-06-24T00:30:30;100589.84;;;18.57;79.11
80103;BME280;69865;47.648;19.030;2023-06-24T00:31:02;100596.00;;;18.58;79.85
80103;BME280;69865;47.648;19.030;2023-06-24T00:31:34;100593.72;;;18.55;79.26
80103;BME280;69865;47.648;19.030;2023-06-24T00:32:07;100592.50;;;18.57;78.45
80103;BME280;69865;47.648;19.030;2023-06-24T00:32:40;100594.34;;;18.57;78.57
80103;BME280;69865;47.648;19.030;2023-06-24T00:33:12;100597.47;;;18.60;77.86
80103;BME280;69865;47.648;19.030;2023-06-24T00:33:44;100598.16;;;18.62;78.94
80103;BME280;69865;47.648;19.030;2023-06-24T00:34:16;100600.88;;;18.54;79.02
80103;BME280;69865;47.648;19.030;2023-06-24T00:34:48;100593.72;;;18.55;78.47
80103;BME280;69865;47.648;19.030;2023-06-24T00:35:20;100597.19;;;18.55;78.71
80103;BME280;69865;47.648;19.030;2023-06-24T00:35:52;100594.72;;;18.54;79.04
80103;BME280;69865;47.648;19.030;2023-06-24T00:36:24;100592.69;;;18.56;78.00
80103;BME280;69865;47.648;19.030;2023-06-24T00:36:56;100585.72;;;18.55;79.03
80103;BME280;69865;47.648;19.030;2023-06-24T00:37:28;100586.50;;;18.55;77.75
80103;BME280;69865;47.648;19.030;2023-06-24T00:38:00;100587.19;;;18.57;78.29
80103;BME280;69865;47.648;19.030;2023-06-24T00:38:32;100577.69;;;18.55;78.25
80103;BME280;69865;47.648;19.030;2023-06-24T00:39:04;100581.00;;;18.57;78.99
80103;BME280;69865;47.648;19.030;2023-06-24T00:39:36;100590.22;;;18.54;79.53
80103;BME280;69865;47.648;19.030;2023-06-24T00:40:09;100584.38;;;18.51;79.38
80103;BME280;69865;47.648;19.030;2023-06-24T00:40:42;100584.38;;;18.51;79.66
80103;BME280;69865;47.648;19.030;2023-06-24T00:41:16;100583.41;;;18.44;80.43
80103;BME280;69865;47.648;19.030;2023-06-24T00:41:48;100576.22;;;18.44;79.14
80103;BME280;69865;47.648;19.030;2023-06-24T00:42:20;100578.38;;;18.49;78.61
80103;BME280;69865;47.648;19.030;2023-06-24T00:42:53;100588.94;;;18.42;78.90
80103;BME280;69865;47.648;19.030;2023-06-24T00:43:25;100575.75;;;18.41;78.87
80103;BME280;69865;47.648;19.030;2023-06-24T00:43:58;100577.06;;;18.45;76.62
80103;BME280;69865;47.648;19.030;2023-06-24T00:44:30;100582.03;;;18.48;76.38
80103;BME280;69865;47.648;19.030;2023-06-24T00:45:04;100570.06;;;18.44;77.44
80103;BME280;69865;47.648;19.030;2023-06-24T00:45:37;100588.47;;;18.39;78.01
80103;BME280;69865;47.648;19.030;2023-06-24T00:46:10;100586.63;;;18.39;78.58
80103;BME280;69865;47.648;19.030;2023-06-24T00:46:42;100580.25;;;18.40;77.95
80103;BME280;69865;47.648;19.030;2023-06-24T00:47:14;100579.44;;;18.40;78.87
80103;BME280;69865;47.648;19.030;2023-06-24T00:47:47;100579.63;;;18.38;79.87
80103;BME280;69865;47.648;19.030;2023-06-24T00:48:19;100586.63;;;18.39;78.41
80103;BME280;69865;47.648;19.030;2023-06-24T00:48:53;100584.75;;;18.40;77.42
80103;BME280;69865;47.648;19.030;2023-06-24T00:49:25;100567.97;;;18.39;76.79
80103;BME280;69865;47.648;19.030;2023-06-24T00:49:57;100568.97;;;18.38;78.22
80103;BME280;69865;47.648;19.030;2023-06-24T00:50:29;100582.94;;;18.40;78.41
80103;BME280;69865;47.648;19.030;2023-06-24T00:51:01;100583.66;;;18.34;78.43
80103;BME280;69865;47.648;19.030;2023-06-24T00:51:33;100588.47;;;18.39;76.11
80103;BME280;69865;47.648;19.030;2023-06-24T00:52:06;100567.97;;;18.39;76.38
80103;BME280;69865;47.648;19.030;2023-06-24T00:52:38;100571.63;;;18.38;77.37
80103;BME280;69865;47.648;19.030;2023-06-24T00:53:10;100566.75;;;18.42;76.19
80103;BME280;69865;47.648;19.030;2023-06-24T00:53:42;100561.25;;;18.43;75.65
80103;BME280;69865;47.648;19.030;2023-06-24T00:54:14;100557.63;;;18.36;77.71
80103;BME280;69865;47.648;19.030;2023-06-24T00:54:46;100566.66;;;18.35;78.20
80103;BME280;69865;47.648;19.030;2023-06-24T00:55:19;100553.31;;;18.35;78.14
80103;BME280;69865;47.648;19.030;2023-06-24T00:55:52;100554.78;;;18.38;77.13
80103;BME280;69865;47.648;19.030;2023-06-24T00:56:27;100557.63;;;18.36;77.96
80103;BME280;69865;47.648;19.030;2023-06-24T00:57:00;100554.31;;;18.34;77.70
80103;BME280;69865;47.648;19.030;2023-06-24T00:57:32;100552.94;;;18.38;76.80
80103;BME280;69865;47.648;19.030;2023-06-24T00:58:04;100549.44;;;18.38;77.15
80103;BME280;69865;47.648;19.030;2023-06-24T00:59:23;100537.22;;;18.20;77.93
80103;BME280;69865;47.648;19.030;2023-06-24T00:59:57;100544.22;;;18.21;76.95
80103;BME280;69865;47.648;19.030;2023-06-24T01:00:31;100558.69;;;18.27;76.54
80103;BME280;69865;47.648;19.030;2023-06-24T01:01:04;100545.06;;;18.22;76.51
80103;BME280;69865;47.648;19.030;2023-06-24T01:01:36;100556.78;;;18.36;74.07
80103;BME280;69865;47.648;19.030;2023-06-24T01:02:09;100572.16;;;18.34;75.69
80103;BME280;69865;47.648;19.030;2023-06-24T01:02:42;100561.84;;;18.30;76.36
80103;BME280;69865;47.648;19.030;2023-06-24T01:03:15;100544.00;;;18.31;76.62
80103;BME280;69865;47.648;19.030;2023-06-24T01:03:47;100541.88;;;18.26;77.07
80103;BME280;69865;47.648;19.030;2023-06-24T01:04:19;100540.56;;;18.45;72.39
80103;BME280;69865;47.648;19.030;2023-06-24T01:04:52;100547.34;;;18.48;73.82
80103;BME280;69865;47.648;19.030;2023-06-24T01:05:24;100550.66;;;18.35;75.23
80103;BME280;69865;47.648;19.030;2023-06-24T01:05:57;100540.72;;;18.44;73.25
80103;BME280;69865;47.648;19.030;2023-06-24T01:06:30;100536.34;;;18.51;73.49
80103;BME280;69865;47.648;19.030;2023-06-24T01:07:05;100536.53;;;18.49;74.46
80103;BME280;69865;47.648;19.030;2023-06-24T01:07:38;100528.53;;;18.49;73.85
80103;BME280;69865;47.648;19.030;2023-06-24T01:08:10;100539.69;;;18.53;73.42
80103;BME280;69865;47.648;19.030;2023-06-24T01:08:42;100541.84;;;18.49;73.80
80103;BME280;69865;47.648;19.030;2023-06-24T01:09:15;100544.03;;;18.54;73.45
80103;BME280;69865;47.648;19.030;2023-06-24T01:09:47;100528.03;;;18.54;73.51
80103;BME280;69865;47.648;19.030;2023-06-24T01:10:19;100534.50;;;18.51;74.85
80103;BME280;69865;47.648;19.030;2023-06-24T01:10:52;100531.91;;;18.43;75.50
80103;BME280;69865;47.648;19.030;2023-06-24T01:11:24;100523.25;;;18.41;75.49
80103;BME280;69865;47.648;19.030;2023-06-24T01:11:56;100518.03;;;18.48;74.46
80103;BME280;69865;47.648;19.030;2023-06-24T01:12:28;100506.84;;;18.52;73.79
80103;BME280;69865;47.648;19.030;2023-06-24T01:13:00;100518.84;;;18.48;74.72
80103;BME280;69865;47.648;19.030;2023-06-24T01:13:32;100504.00;;;18.54;74.31
80103;BME280;69865;47.648;19.030;2023-06-24T01:14:05;100514.19;;;18.50;74.90
80103;BME280;69865;47.648;19.030;2023-06-24T01:14:37;100509.75;;;18.43;75.93
80103;BME280;69865;47.648;19.030;2023-06-24T01:15:10;100513.13;;;18.37;75.76
80103;BME280;69865;47.648;19.030;2023-06-24T01:15:44;100505.41;;;18.42;74.52
80103;BME280;69865;47.648;19.030;2023-06-24T01:16:33;100507.72;;;18.45;74.46
80103;BME280;69865;47.648;19.030;2023-06-24T01:17:11;100512.41;;;18.43;74.68
80103;BME280;69865;47.648;19.030;2023-06-24T01:17:50;100497.25;;;18.43;75.05
80103;BME280;69865;47.648;19.030;2023-06-24T01:18:32;100493.19;;;18.47;75.20
80103;BME280;69865;47.648;19.030;2023-06-24T01:19:28;100509.44;;;18.38;75.79
80103;BME280;69865;47.648;19.030;2023-06-24T01:20:09;100508.09;;;18.42;74.39
80103;BME280;69865;47.648;19.030;2023-06-24T01:20:47;100498.50;;;18.47;73.61
80103;BME280;69865;47.648;19.030;2023-06-24T01:21:32;100505.53;;;18.48;74.27
80103;BME280;69865;47.648;19.030;2023-06-24T01:22:19;100482.50;;;18.47;73.69
80103;BME280;69865;47.648;19.030;2023-06-24T01:23:20;100500.50;;;18.53;73.97
80103;BME280;69865;47.648;19.030;2023-06-24T01:25:22;100489.00;;;18.53;73.90
80103;BME280;69865;47.648;19.030;2023-06-24T01:26:20;100494.09;;;18.62;73.49
80103;BME280;69865;47.648;19.030;2023-06-24T01:27:24;100492.81;;;18.58;74.13
80103;BME280;69865;47.648;19.030;2023-06-24T01:28:22;100491.31;;;18.56;74.63
80103;BME280;69865;47.648;19.030;2023-06-24T01:30:25;100479.16;;;18.53;74.26
80103;BME280;69865;47.648;19.030;2023-06-24T01:31:31;100495.47;;;18.58;74.42
80103;BME280;69865;47.648;19.030;2023-06-24T01:32:06;100492.81;;;18.58;73.72
80103;BME280;69865;47.648;19.030;2023-06-24T01:32:45;100492.13;;;18.56;73.88
80103;BME280;69865;47.648;19.030;2023-06-24T01:33:23;100500.28;;;18.63;73.93
80103;BME280;69865;47.648;19.030;2023-06-24T01:34:01;100495.94;;;18.62;73.81
80103;BME280;69865;47.648;19.030;2023-06-24T01:34:42;100497.78;;;18.61;74.25
80103;BME280;69865;47.648;19.030;2023-06-24T01:35:19;100496.56;;;18.64;73.69
80103;BME280;69865;47.648;19.030;2023-06-24T01:35:54;100491.22;;;18.64;73.41
80103;BME280;69865;47.648;19.030;2023-06-24T01:36:29;100505.41;;;18.64;73.72
80103;BME280;69865;47.648;19.030;2023-06-24T01:37:10;100489.94;;;18.60;73.81
80103;BME280;69865;47.648;19.030;2023-06-24T01:37:46;100497.41;;;18.64;73.02
80103;BME280;69865;47.648;19.030;2023-06-24T01:38:24;100503.75;;;18.63;73.96
80103;BME280;69865;47.648;19.030;2023-06-24T01:39:01;100496.56;;;18.64;74.75
80103;BME280;69865;47.648;19.030;2023-06-24T01:39:38;100496.94;;;18.61;74.69
80103;BME280;69865;47.648;19.030;2023-06-24T01:40:21;100495.28;;;18.60;74.97
80103;BME280;69865;47.648;19.030;2023-06-24T01:40:55;100482.13;;;18.58;73.89
80103;BME280;69865;47.648;19.030;2023-06-24T01:41:32;100489.94;;;18.60;74.02
80103;BME280;69865;47.648;19.030;2023-06-24T01:42:09;100487.63;;;18.57;74.25
80103;BME280;69865;47.648;19.030;2023-06-24T01:42:45;100492.44;;;18.61;73.69
80103;BME280;69865;47.648;19.030;2023-06-24T01:43:19;100481.09;;;18.59;74.31
80103;BME280;69865;47.648;19.030;2023-06-24T01:43:56;100479.69;;;18.49;74.80
80103;BME280;69865;47.648;19.030;2023-06-24T01:44:30;100499.00;;;18.51;75.02
80103;BME280;69865;47.648;19.030;2023-06-24T01:45:05;100488.19;;;18.52;74.39
80103;BME280;69865;47.648;19.030;2023-06-24T01:45:41;100490.50;;;18.47;74.98
80103;BME280;69865;47.648;19.030;2023-06-24T01:46:17;100501.69;;;18.51;74.99
80103;BME280;69865;47.648;19.030;2023-06-24T01:46:57;100500.00;;;18.50;75.25
80103;BME280;69865;47.648;19.030;2023-06-24T01:47:31;100507.34;;;18.48;74.74
80103;BME280;69865;47.648;19.030;2023-06-24T01:48:09;100506.00;;;18.52;74.48
80103;BME280;69865;47.648;19.030;2023-06-24T01:48:44;100490.84;;;18.52;74.65
80103;BME280;69865;47.648;19.030;2023-06-24T01:49:19;100489.84;;;18.53;74.71
80103;BME280;69865;47.648;19.030;2023-06-24T01:49:54;100497.16;;;18.51;74.72
80103;BME280;69865;47.648;19.030;2023-06-24T01:50:32;100494.69;;;18.50;75.31
80103;BME280;69865;47.648;19.030;2023-06-24T01:51:09;100493.84;;;18.49;75.03
80103;BME280;69865;47.648;19.030;2023-06-24T01:51:44;100491.09;;;18.43;75.81
80103;BME280;69865;47.648;19.030;2023-06-24T01:52:21;100492.72;;;18.44;75.85
80103;BME280;69865;47.648;19.030;2023-06-24T01:52:55;100500.72;;;18.44;76.32
80103;BME280;69865;47.648;19.030;2023-06-24T01:53:28;100498.41;;;18.41;77.06
80103;BME280;69865;47.648;19.030;2023-06-24T01:54:07;100493.81;;;18.35;76.21
80103;BME280;69865;47.648;19.030;2023-06-24T01:54:42;100499.16;;;18.35;75.57
80103;BME280;69865;47.648;19.030;2023-06-24T01:55:19;100492.63;;;18.37;74.96
80103;BME280;69865;47.648;19.030;2023-06-24T01:55:57;100495.28;;;18.37;75.72
80103;BME280;69865;47.648;19.030;2023-06-24T01:56:30;100498.94;;;18.36;75.67
80103;BME280;69865;47.648;19.030;2023-06-24T01:57:09;100492.16;;;18.34;75.21
80103;BME280;69865;47.648;19.030;2023-06-24T01:57:44;100487.44;;;18.36;75.33
80103;BME280;69865;47.648;19.030;2023-06-24T01:58:19;100489.31;;;18.35;75.24
80103;BME280;69865;47.648;19.030;2023-06-24T01:58:55;100488.81;;;18.31;75.68
80103;BME280;69865;47.648;19.030;2023-06-24T01:59:29;100490.31;;;18.34;75.75
80103;BME280;69865;47.648;19.030;2023-06-24T02:00:03;100490.13;;;18.36;75.63
80103;BME280;69865;47.648;19.030;2023-06-24T02:00:36;100495.28;;;18.37;75.68
80103;BME280;69865;47.648;19.030;2023-06-24T02:01:10;100485.81;;;18.35;75.94
80103;BME280;69865;47.648;19.030;2023-06-24T02:01:44;100474.31;;;18.34;75.02
80103;BME280;69865;47.648;19.030;2023-06-24T02:02:18;100480.81;;;18.31;75.47
80103;BME280;69865;47.648;19.030;2023-06-24T02:02:52;100491.69;;;18.30;75.85
80103;BME280;69865;47.648;19.030;2023-06-24T02:03:27;100480.81;;;18.31;76.34
80103;BME280;69865;47.648;19.030;2023-06-24T02:04:02;100482.00;;;18.29;76.01
80103;BME280;69865;47.648;19.030;2023-06-24T02:04:37;100493.34;;;18.31;75.83
80103;BME280;69865;47.648;19.030;2023-06-24T02:05:11;100483.75;;;18.22;76.48
80103;BME280;69865;47.648;19.030;2023-06-24T02:05:46;100482.38;;;18.26;75.88
80103;BME280;69865;47.648;19.030;2023-06-24T02:06:21;100475.53;;;18.23;75.85
80103;BME280;69865;47.648;19.030;2023-06-24T02:06:54;100473.72;;;18.24;76.10
80103;BME280;69865;47.648;19.030;2023-06-24T02:07:28;100470.22;;;18.23;75.69
80103;BME280;69865;47.648;19.030;2023-06-24T02:08:02;100483.38;;;18.25;75.95
80103;BME280;69865;47.648;19.030;2023-06-24T02:08:37;100483.53;;;18.23;76.48
80103;BME280;69865;47.648;19.030;2023-06-24T02:09:11;100485.56;;;18.21;76.63
80103;BME280;69865;47.648;19.030;2023-06-24T02:09:45;100470.41;;;18.22;76.20
80103;BME280;69865;47.648;19.030;2023-06-24T02:10:19;100467.75;;;18.22;76.03
80103;BME280;69865;47.648;19.030;2023-06-24T02:10:52;100465.06;;;18.22;75.82
80103;BME280;69865;47.648;19.030;2023-06-24T02:11:27;100464.41;;;18.20;75.64
80103;BME280;69865;47.648;19.030;2023-06-24T02:12:02;100470.78;;;18.19;75.50
80103;BME280;69865;47.648;19.030;2023-06-24T02:12:35;100468.56;;;18.22;75.78
80103;BME280;69865;47.648;19.030;2023-06-24T02:13:09;100459.53;;;18.23;75.47
80103;BME280;69865;47.648;19.030;2023-06-24T02:13:43;100460.13;;;18.19;76.50
80103;BME280;69865;47.648;19.030;2023-06-24T02:14:17;100458.06;;;18.21;75.59
80103;BME280;69865;47.648;19.030;2023-06-24T02:14:52;100467.38;;;18.25;75.31
80103;BME280;69865;47.648;19.030;2023-06-24T02:15:28;100465.06;;;18.22;76.13
80103;BME280;69865;47.648;19.030;2023-06-24T02:16:01;100470.78;;;18.19;75.48
80103;BME280;69865;47.648;19.030;2023-06-24T02:16:35;100468.56;;;18.22;74.89
80103;BME280;69865;47.648;19.030;2023-06-24T02:17:10;100465.06;;;18.22;75.18
80103;BME280;69865;47.648;19.030;2023-06-24T02:17:45;100475.53;;;18.23;74.84
80103;BME280;69865;47.648;19.030;2023-06-24T02:18:17;100480.25;;;18.21;74.97
80103;BME280;69865;47.648;19.030;2023-06-24T02:18:51;100471.78;;;18.18;75.19
80103;BME280;69865;47.648;19.030;2023-06-24T02:19:27;100475.75;;;18.22;74.39
80103;BME280;69865;47.648;19.030;2023-06-24T02:20:01;100464.06;;;18.23;74.34
80103;BME280;69865;47.648;19.030;2023-06-24T02:20:34;100454.88;;;18.25;74.89
80103;BME280;69865;47.648;19.030;2023-06-24T02:21:06;100461.50;;;18.29;74.37
80103;BME280;69865;47.648;19.030;2023-06-24T02:21:40;100468.22;;;18.25;75.41
80103;BME280;69865;47.648;19.030;2023-06-24T02:22:13;100459.28;;;18.18;75.08
80103;BME280;69865;47.648;19.030;2023-06-24T02:22:46;100457.25;;;18.20;74.99
80103;BME280;69865;47.648;19.030;2023-06-24T02:23:20;100466.75;;;18.23;74.99
80103;BME280;69865;47.648;19.030;2023-06-24T02:23:53;100468.75;;;18.21;76.22
80103;BME280;69865;47.648;19.030;2023-06-24T02:24:26;100470.84;;;18.11;76.62
80103;BME280;69865;47.648;19.030;2023-06-24T02:24:59;100457.78;;;18.16;75.66
80103;BME280;69865;47.648;19.030;2023-06-24T02:25:32;100455.94;;;18.16;74.29
80103;BME280;69865;47.648;19.030;2023-06-24T02:26:06;100462.28;;;18.15;75.47
80103;BME280;69865;47.648;19.030;2023-06-24T02:26:40;100469.28;;;18.16;74.68
80103;BME280;69865;47.648;19.030;2023-06-24T02:27:13;100469.09;;;18.18;74.45
80103;BME280;69865;47.648;19.030;2023-06-24T02:27:46;100472.78;;;18.17;74.97
80103;BME280;69865;47.648;19.030;2023-06-24T02:28:18;100480.59;;;18.18;74.72
80103;BME280;69865;47.648;19.030;2023-06-24T02:28:50;100467.75;;;18.22;74.34
80103;BME280;69865;47.648;19.030;2023-06-24T02:29:26;100478.22;;;18.23;74.53
80103;BME280;69865;47.648;19.030;2023-06-24T02:29:58;100484.28;;;18.17;75.38
80103;BME280;69865;47.648;19.030;2023-06-24T02:30:32;100489.59;;;18.17;74.65
80103;BME280;69865;47.648;19.030;2023-06-24T02:31:08;100487.94;;;18.16;74.55
80103;BME280;69865;47.648;19.030;2023-06-24T02:31:41;100491.28;;;18.18;74.96
80103;BME280;69865;47.648;19.030;2023-06-24T02:32:13;100482.25;;;18.19;75.04
80103;BME280;69865;47.648;19.030;2023-06-24T02:32:47;100494.47;;;18.14;75.11
80103;BME280;69865;47.648;19.030;2023-06-24T02:33:19;100492.44;;;18.16;74.76
80103;BME280;69865;47.648;19.030;2023-06-24T02:33:52;100491.91;;;18.20;74.69
80103;BME280;69865;47.648;19.030;2023-06-24T02:34:24;100498.06;;;18.21;74.82
80103;BME280;69865;47.648;19.030;2023-06-24T02:34:57;100494.78;;;18.19;75.16
80103;BME280;69865;47.648;19.030;2023-06-24T02:35:29;100497.44;;;18.19;74.59
80103;BME280;69865;47.648;19.030;2023-06-24T02:36:02;100497.44;;;18.19;74.86
80103;BME280;69865;47.648;19.030;2023-06-24T02:36:34;100495.78;;;18.18;75.55
80103;BME280;69865;47.648;19.030;2023-06-24T02:37:06;100497.59;;;18.17;74.74
80103;BME280;69865;47.648;19.030;2023-06-24T02:37:38;100486.09;;;18.17;74.71
80103;BME280;69865;47.648;19.030;2023-06-24T02:38:10;100494.94;;;18.17;74.80
80103;BME280;69865;47.648;19.030;2023-06-24T02:38:42;100487.94;;;18.16;75.43
80103;BME280;69865;47.648;19.030;2023-06-24T02:39:14;100490.97;;;18.13;75.23
80103;BME280;69865;47.648;19.030;2023-06-24T02:39:46;100494.09;;;18.17;74.54
80103;BME280;69865;47.648;19.030;2023-06-24T02:40:19;100493.28;;;18.16;75.12
80103;BME280;69865;47.648;19.030;2023-06-24T02:40:52;100490.44;;;18.18;75.09
80103;BME280;69865;47.648;19.030;2023-06-24T02:41:24;100495.31;;;18.14;75.52
80103;BME280;69865;47.648;19.030;2023-06-24T02:41:56;100497.97;;;18.14;74.90
80103;BME280;69865;47.648;19.030;2023-06-24T02:42:28;100497.59;;;18.17;74.88
80103;BME280;69865;47.648;19.030;2023-06-24T02:43:00;100496.47;;;18.12;75.26
80103;BME280;69865;47.648;19.030;2023-06-24T02:43:32;100500.78;;;18.13;75.17
80103;BME280;69865;47.648;19.030;2023-06-24T02:44:05;100501.00;;;18.11;75.72
80103;BME280;69865;47.648;19.030;2023-06-24T02:44:37;100508.47;;;18.08;75.52
80103;BME280;69865;47.648;19.030;2023-06-24T02:45:10;100510.81;;;18.11;75.68
80103;BME280;69865;47.648;19.030;2023-06-24T02:45:43;100501.63;;;18.13;75.08
80103;BME280;69865;47.648;19.030;2023-06-24T02:46:15;100504.66;;;18.10;75.83
80103;BME280;69865;47.648;19.030;2023-06-24T02:46:50;100507.84;;;18.06;76.05
80103;BME280;69865;47.648;19.030;2023-06-24T02:47:24;100508.16;;;18.11;76.27
80103;BME280;69865;47.648;19.030;2023-06-24T02:47:59;100507.13;;;18.12;76.43
80103;BME280;69865;47.648;19.030;2023-06-24T02:48:33;100511.81;;;18.10;76.55
80103;BME280;69865;47.648;19.030;2023-06-24T02:49:07;100511.34;;;18.06;76.14
80103;BME280;69865;47.648;19.030;2023-06-24T02:49:43;100510.69;;;18.04;75.75
80103;BME280;69865;47.648;19.030;2023-06-24T02:50:16;100510.69;;;18.04;75.75
80103;BME280;69865;47.648;19.030;2023-06-24T02:50:50;100511.03;;;18.01;76.21
80103;BME280;69865;47.648;19.030;2023-06-24T02:51:23;100524.53;;;18.00;76.29
80103;BME280;69865;47.648;19.030;2023-06-24T02:51:55;100518.88;;;18.03;76.48
80103;BME280;69865;47.648;19.030;2023-06-24T02:52:27;100526.19;;;18.01;76.73
80103;BME280;69865;47.648;19.030;2023-06-24T02:53:00;100524.72;;;17.98;77.58
80103;BME280;69865;47.648;19.030;2023-06-24T02:53:34;100520.91;;;17.93;76.59
80103;BME280;69865;47.648;19.030;2023-06-24T02:54:08;100527.56;;;17.97;75.80
80103;BME280;69865;47.648;19.030;2023-06-24T02:54:41;100524.88;;;17.97;76.82
80103;BME280;69865;47.648;19.030;2023-06-24T02:55:14;100505.72;;;18.01;75.89
80103;BME280;69865;47.648;19.030;2023-06-24T02:55:50;100513.72;;;18.01;75.92
80103;BME280;69865;47.648;19.030;2023-06-24T02:56:24;100516.06;;;17.96;76.05
80103;BME280;69865;47.648;19.030;2023-06-24T02:56:57;100526.56;;;17.98;76.91
80103;BME280;69865;47.648;19.030;2023-06-24T02:57:33;100521.59;;;17.95;76.78
80103;BME280;69865;47.648;19.030;2023-06-24T02:58:06;100509.41;;;17.92;76.57
80103;BME280;69865;47.648;19.030;2023-06-24T02:58:39;100521.91;;;17.92;76.81
80103;BME280;69865;47.648;19.030;2023-06-24T02:59:12;100513.44;;;17.88;76.28
80103;BME280;69865;47.648;19.030;2023-06-24T02:59:44;100522.47;;;17.87;76.62
80103;BME280;69865;47.648;19.030;2023-06-24T03:00:17;100518.97;;;17.87;76.49